Time;durP1;ratioP1;P1;durP2;ratioP2;P2;SDS_P1;SDS_P2;PMS_P1;PMS_P2;Temp;Humidity;BMP_temperature;BMP_pressure;BME280_temperature;BME280_humidity;BME280_pressure;Samples;Min_cycle;Max_cycle;Signal;HPM_P1;HPM_P2
2021/07/03 00:00:54;;;;;;;6.03;4.37;;;;;;;18.02;81.33;100934.67;1720570;82;21026;-83
2021/07/03 00:03:23;;;;;;;4.40;3.92;;;;;;;18.01;81.38;100934.22;1720140;83;21025;-82
2021/07/03 00:05:50;;;;;;;5.30;4.58;;;;;;;18.01;81.37;100932.89;1720332;82;20978;-83
2021/07/03 00:08:17;;;;;;;4.67;4.15;;;;;;;17.99;81.42;100924.47;1720171;82;21080;-83
2021/07/03 00:10:44;;;;;;;8.73;4.10;;;;;;;18.02;81.42;100927.14;1720147;83;21135;-83
2021/07/03 00:13:11;;;;;;;5.50;4.33;;;;;;;18.02;81.46;100928.02;1720225;82;21080;-82
2021/07/03 00:15:38;;;;;;;5.58;4.47;;;;;;;18.00;81.49;100920.89;1720242;82;21697;-83
2021/07/03 00:18:05;;;;;;;5.78;4.12;;;;;;;18.00;81.55;100919.14;1720030;82;21061;-83
2021/07/03 00:20:32;;;;;;;7.40;4.90;;;;;;;18.00;81.56;100915.57;1693821;83;21299;-83
2021/07/03 00:22:59;;;;;;;5.53;4.37;;;;;;;18.00;81.58;100915.57;1720379;83;21049;-83
2021/07/03 00:25:26;;;;;;;7.08;4.55;;;;;;;18.01;81.64;100916.91;1720159;82;21480;-83
2021/07/03 00:27:52;;;;;;;5.17;4.70;;;;;;;18.01;81.60;100927.55;1720170;83;22414;-83
2021/07/03 00:30:20;;;;;;;6.55;5.50;;;;;;;18.00;81.64;100917.81;1713456;82;21011;-83
2021/07/03 00:32:47;;;;;;;5.10;4.60;;;;;;;17.99;81.66;100913.81;1651042;85;21113;-83
2021/07/03 00:35:14;;;;;;;7.50;5.00;;;;;;;17.98;81.74;100915.60;1697296;83;21034;-82
2021/07/03 00:37:41;;;;;;;6.25;4.60;;;;;;;17.98;81.77;100912.94;1697345;83;21089;-82
2021/07/03 00:40:09;;;;;;;5.55;4.97;;;;;;;17.97;81.79;100906.28;1697231;83;21841;-82
2021/07/03 00:42:36;;;;;;;7.33;5.15;;;;;;;17.98;81.86;100909.36;1697135;83;21058;-82
2021/07/03 00:45:04;;;;;;;7.15;5.05;;;;;;;17.97;81.89;100912.94;1697311;83;21022;-83
2021/07/03 00:47:31;;;;;;;5.35;4.55;;;;;;;17.96;81.90;100914.72;1697234;83;21496;-82
2021/07/03 00:49:58;;;;;;;6.05;5.22;;;;;;;17.95;81.97;100908.06;1697407;84;21677;-83
2021/07/03 00:52:24;;;;;;;5.87;5.28;;;;;;;17.94;82.05;100907.16;1697323;84;22575;-83
2021/07/03 00:54:51;;;;;;;6.70;5.08;;;;;;;17.93;82.11;100906.73;1697366;84;21245;-83
2021/07/03 00:57:18;;;;;;;5.90;4.67;;;;;;;17.94;82.11;100903.61;1697336;84;21509;-83
2021/07/03 00:59:47;;;;;;;7.47;5.17;;;;;;;17.95;82.15;100908.06;1697522;84;21136;-83
2021/07/03 01:02:17;;;;;;;7.42;5.10;;;;;;;17.95;82.15;100901.41;1697320;83;21068;-83
2021/07/03 01:04:44;;;;;;;6.75;5.08;;;;;;;17.95;82.18;100900.08;1697378;84;21772;-82
2021/07/03 01:07:11;;;;;;;5.95;4.97;;;;;;;17.95;82.18;100907.61;1697349;84;21007;-83
2021/07/03 01:09:37;;;;;;;5.75;4.62;;;;;;;17.97;82.26;100911.61;1697475;84;21074;-83
2021/07/03 01:12:06;;;;;;;6.00;5.30;;;;;;;17.98;82.26;100911.61;1697368;83;21007;-83
2021/07/03 01:14:33;;;;;;;5.70;5.10;;;;;;;17.99;82.26;100910.70;1697517;83;21043;-83
2021/07/03 01:16:59;;;;;;;5.40;4.90;;;;;;;18.00;82.24;100914.23;1697440;83;22085;-83
2021/07/03 01:19:26;;;;;;;8.90;5.12;;;;;;;18.00;82.25;100911.58;1697410;84;21045;-83
2021/07/03 01:21:55;;;;;;;8.45;4.92;;;;;;;18.02;82.31;100902.71;1697475;84;21481;-83
2021/07/03 01:24:23;;;;;;;4.97;4.55;;;;;;;18.06;82.32;100904.47;1697380;83;21220;-83
2021/07/03 01:26:52;;;;;;;6.08;5.10;;;;;;;18.06;82.27;100903.13;1697536;84;21011;-83
2021/07/03 01:29:22;;;;;;;5.20;4.70;;;;;;;18.09;82.28;100902.23;1697505;84;21800;-83
2021/07/03 01:31:51;;;;;;;5.97;4.30;;;;;;;18.09;82.19;100903.55;1697100;83;20991;-83
2021/07/03 01:34:20;;;;;;;6.00;4.75;;;;;;;18.09;82.12;100900.02;1697178;83;21078;-83
2021/07/03 01:36:47;;;;;;;5.20;4.45;;;;;;;18.09;82.19;100904.02;1697316;83;21065;-83
2021/07/03 01:39:14;;;;;;;8.78;4.70;;;;;;;18.08;82.12;100907.13;1697411;84;21035;-83
2021/07/03 01:41:41;;;;;;;7.80;5.28;;;;;;;18.09;82.22;100908.01;1697355;84;21720;-82
2021/07/03 01:44:08;;;;;;;5.80;4.95;;;;;;;18.08;82.16;100906.25;1697323;83;21098;-82
2021/07/03 01:46:34;;;;;;;6.20;4.83;;;;;;;18.08;82.15;100903.14;1697272;83;21077;-83
2021/07/03 01:49:08;;;;;;;6.42;5.30;;;;;;;18.10;82.23;100896.48;1697387;83;21066;-83
2021/07/03 01:51:35;;;;;;;5.17;4.30;;;;;;;18.12;82.17;100897.35;1697510;83;21030;-82
2021/07/03 01:54:03;;;;;;;6.08;5.47;;;;;;;18.13;82.14;100900.44;1683127;84;22564;-82
2021/07/03 01:56:30;;;;;;;6.58;5.25;;;;;;;18.12;82.01;100902.23;1697388;84;21058;-82
2021/07/03 01:58:56;;;;;;;5.90;5.12;;;;;;;18.11;82.09;100896.45;1697339;83;21532;-82
2021/07/03 02:01:25;;;;;;;9.78;5.42;;;;;;;18.13;82.16;100901.35;1697418;84;21015;-82
2021/07/03 02:03:52;;;;;;;6.50;4.95;;;;;;;18.15;82.10;100900.89;1697103;84;21042;-82
2021/07/03 02:06:18;;;;;;;5.58;4.95;;;;;;;18.15;81.98;100909.31;1697471;83;21738;-82
2021/07/03 02:08:45;;;;;;;9.28;5.15;;;;;;;18.12;82.01;100910.22;1697392;84;21066;-82
2021/07/03 02:11:12;;;;;;;8.58;5.50;;;;;;;18.08;81.96;100900.47;1697398;84;21102;-83
2021/07/03 02:13:39;;;;;;;5.80;5.22;;;;;;;18.04;82.02;100907.58;1697389;83;21137;-83
2021/07/03 02:16:05;;;;;;;6.85;5.22;;;;;;;18.04;82.11;100910.25;1697403;84;21065;-82
2021/07/03 02:18:33;;;;;;;5.80;5.22;;;;;;;18.08;82.16;100907.59;1697401;84;21769;-82
2021/07/03 02:20:59;;;;;;;6.70;5.33;;;;;;;18.10;82.18;100909.80;1697210;83;21054;-82
2021/07/03 02:23:26;;;;;;;6.47;4.97;;;;;;;18.13;82.19;100913.76;1697594;83;21003;-81
2021/07/03 02:25:54;;;;;;;6.97;5.15;;;;;;;18.18;82.26;100910.19;1697133;83;20991;-81
2021/07/03 02:28:21;;;;;;;7.90;5.40;;;;;;;18.22;82.17;100911.94;1697545;84;21167;-82
2021/07/03 02:30:47;;;;;;;6.85;5.28;;;;;;;18.23;82.16;100913.73;1701802;83;21738;-82
2021/07/03 02:33:14;;;;;;;7.15;5.20;;;;;;;18.31;82.20;100916.81;1719954;82;21045;-80
2021/07/03 02:35:41;;;;;;;7.47;5.80;;;;;;;18.35;82.16;100918.11;1720391;83;21056;-80
2021/07/03 02:38:08;;;;;;;6.85;5.40;;;;;;;18.42;82.15;100921.20;1720193;83;21137;-80
2021/07/03 02:40:35;;;;;;;6.50;5.20;;;;;;;18.46;81.99;100921.61;1720360;83;21092;-80
2021/07/03 02:43:02;;;;;;;10.03;5.67;;;;;;;18.51;81.89;100923.39;1720352;82;21803;-82
2021/07/03 02:45:29;;;;;;;8.33;5.70;;;;;;;18.50;81.68;100927.81;1720160;82;20990;-81
2021/07/03 02:47:55;;;;;;;7.70;6.00;;;;;;;18.52;81.58;100929.15;1720270;83;21010;-80
2021/07/03 02:50:22;;;;;;;11.00;5.75;;;;;;;18.53;81.55;100926.48;1720228;82;21554;-80
2021/07/03 02:52:49;;;;;;;6.72;5.10;;;;;;;18.56;81.55;100925.56;1720384;83;21037;-82
2021/07/03 02:55:16;;;;;;;7.78;5.42;;;;;;;18.57;81.37;100924.23;1720439;82;21676;-81
2021/07/03 02:57:43;;;;;;;6.20;5.05;;;;;;;18.59;81.37;100930.44;1720298;83;21069;-81
2021/07/03 03:00:15;;;;;;;7.33;5.15;;;;;;;18.62;81.40;100921.11;1720268;83;21049;-80
2021/07/03 03:02:42;;;;;;;6.47;5.55;;;;;;;18.64;81.25;100924.64;1720236;82;21151;-81
2021/07/03 03:05:11;;;;;;;6.20;4.97;;;;;;;18.67;81.00;100930.39;1720338;82;21156;-80
2021/07/03 03:07:38;;;;;;;6.75;5.83;;;;;;;18.68;81.03;100930.84;1720289;82;21757;-80
2021/07/03 03:10:06;;;;;;;5.97;5.33;;;;;;;18.67;80.94;100921.52;1720209;82;21002;-80
2021/07/03 03:12:33;;;;;;;5.92;4.83;;;;;;;18.68;80.95;100913.97;1720195;82;20986;-80
2021/07/03 03:15:00;;;;;;;5.92;5.33;;;;;;;18.69;80.91;100913.94;1720185;83;21037;-80
2021/07/03 03:17:27;;;;;;;6.45;5.72;;;;;;;18.69;80.90;100917.94;1720190;83;21515;-80
2021/07/03 03:19:54;;;;;;;7.30;5.12;;;;;;;18.71;80.85;100915.27;1720340;82;21751;-80
2021/07/03 03:22:21;;;;;;;6.03;5.42;;;;;;;18.74;80.90;100908.14;1720195;82;21026;-80
2021/07/03 03:24:48;;;;;;;8.48;5.62;;;;;;;18.76;80.85;100898.80;1720246;83;21084;-80
2021/07/03 03:27:15;;;;;;;8.70;6.62;;;;;;;18.77;80.75;100900.13;1720441;82;21006;-80
2021/07/03 03:29:41;;;;;;;9.78;5.72;;;;;;;18.77;80.71;100896.13;1720345;83;21088;-80
2021/07/03 03:32:08;;;;;;;8.75;6.08;;;;;;;18.76;80.60;100898.34;1719892;83;22577;-80
2021/07/03 03:34:35;;;;;;;7.25;5.95;;;;;;;18.76;80.65;100902.34;1720177;83;21080;-80
2021/07/03 03:37:03;;;;;;;8.48;6.62;;;;;;;18.78;80.63;100903.67;1720232;83;21065;-80
2021/07/03 03:39:29;;;;;;;6.65;6.05;;;;;;;18.77;80.57;100905.89;1720237;83;20982;-80
2021/07/03 03:41:56;;;;;;;9.18;6.15;;;;;;;18.76;80.61;100905.47;1720299;82;21380;-81
2021/07/03 03:44:23;;;;;;;10.82;6.22;;;;;;;18.79;80.63;100905.01;1720252;83;21831;-81
2021/07/03 03:46:54;;;;;;;7.22;5.67;;;;;;;18.83;80.64;100904.12;1720106;82;21103;-80
2021/07/03 03:49:20;;;;;;;9.18;6.28;;;;;;;18.87;80.56;100908.11;1719283;83;20998;-81
2021/07/03 03:51:48;;;;;;;8.25;6.40;;;;;;;18.89;80.52;100908.98;1693389;83;39779;-80
2021/07/03 03:54:16;;;;;;;9.40;6.33;;;;;;;18.90;80.46;100910.73;1720124;83;21030;-80
2021/07/03 03:56:43;;;;;;;6.62;5.95;;;;;;;18.91;80.42;100909.85;1720185;82;21818;-80
2021/07/03 03:59:13;;;;;;;6.62;5.92;;;;;;;18.95;80.54;100906.27;1720174;83;21076;-80
2021/07/03 04:01:40;;;;;;;7.25;5.55;;;;;;;18.98;80.33;100907.59;1720440;83;21089;-80
2021/07/03 04:04:06;;;;;;;7.85;6.03;;;;;;;18.98;80.28;100908.46;1719957;82;20999;-81
2021/07/03 04:06:33;;;;;;;10.35;6.22;;;;;;;19.00;80.34;100910.67;1720476;83;21128;-80
2021/07/03 04:09:00;;;;;;;10.10;6.90;;;;;;;19.02;80.19;100912.88;1720381;82;21935;-80
2021/07/03 04:11:27;;;;;;;9.20;6.22;;;;;;;19.01;80.17;100903.12;1720343;83;21081;-80
2021/07/03 04:13:54;;;;;;;11.03;5.90;;;;;;;19.09;80.26;100907.48;1720128;82;21033;-80
2021/07/03 04:16:21;;;;;;;5.85;5.25;;;;;;;19.14;80.23;100905.22;1720220;83;21570;-81
2021/07/03 04:18:48;;;;;;;7.17;5.62;;;;;;;19.23;80.20;100904.27;1720391;83;21002;-81
2021/07/03 04:21:14;;;;;;;8.15;5.92;;;;;;;19.30;79.96;100904.66;1720228;82;21757;-80
2021/07/03 04:23:44;;;;;;;7.15;5.62;;;;;;;19.34;79.72;100905.06;1720209;82;21037;-80
2021/07/03 04:26:11;;;;;;;7.87;6.40;;;;;;;19.38;79.78;100908.59;1720192;83;21065;-80
2021/07/03 04:28:38;;;;;;;6.37;5.60;;;;;;;19.42;79.62;100905.87;1720249;83;21093;-80
2021/07/03 04:31:05;;;;;;;6.75;5.95;;;;;;;19.50;79.66;100907.16;1720228;82;21109;-80
2021/07/03 04:33:32;;;;;;;7.22;6.37;;;;;;;19.59;79.58;100911.05;1719916;82;21888;-81
2021/07/03 04:35:59;;;;;;;6.85;5.62;;;;;;;19.67;79.51;100901.66;1720187;82;21014;-80
2021/07/03 04:38:25;;;;;;;6.20;5.45;;;;;;;19.78;79.36;100903.80;1720288;83;21080;-80
2021/07/03 04:40:52;;;;;;;6.22;5.45;;;;;;;19.88;79.16;100902.37;1720147;82;21154;-80
2021/07/03 04:43:19;;;;;;;8.48;5.95;;;;;;;19.98;79.08;100914.70;1720261;83;21010;-80
2021/07/03 04:45:46;;;;;;;6.75;5.30;;;;;;;20.06;78.89;100913.28;1720273;83;21730;-80
2021/07/03 04:48:20;;;;;;;8.33;5.10;;;;;;;20.15;78.60;100906.49;1720007;83;21262;-80
2021/07/03 04:50:53;;;;;;;9.08;5.28;;;;;;;20.26;78.48;100905.03;1708927;83;21570;-80
2021/07/03 04:53:47;;;;;;;;;;;;;;;20.38;78.18;100904.43;1702601;83;21573;-80
2021/07/03 04:55:55;;;;;;;8.78;5.75;;;;;;;20.51;77.98;100905.58;1671813;84;20214;-80
2021/07/03 04:58:22;;;;;;;5.50;4.90;;;;;;;20.68;77.82;100908.06;1699388;83;22595;-80
2021/07/03 05:00:49;;;;;;;5.95;4.90;;;;;;;20.96;78.15;100903.18;1699616;83;21053;-80
2021/07/03 05:03:16;;;;;;;5.42;4.40;;;;;;;21.61;78.59;100909.72;1699724;83;21111;-80
2021/07/03 05:05:42;;;;;;;6.87;4.50;;;;;;;24.04;76.92;100871.02;1699946;84;21132;-81
2021/07/03 05:08:09;;;;;;;4.22;3.83;;;;;;;24.04;76.92;100871.02;1699662;83;21001;-80
2021/07/03 05:10:36;;;;;;;3.83;3.45;;;;;;;25.20;75.31;100896.12;1700090;84;21766;-80
2021/07/03 05:13:03;;;;;;;5.37;3.37;;;;;;;25.55;72.80;100901.30;1700318;83;21064;-80
2021/07/03 05:15:30;;;;;;;7.78;3.70;;;;;;;25.60;71.42;100902.91;1700297;83;21025;-80
2021/07/03 05:17:57;;;;;;;6.15;3.75;;;;;;;25.60;70.16;100907.39;1700271;84;20977;-81
2021/07/03 05:20:24;;;;;;;5.58;3.90;;;;;;;25.64;69.91;100905.47;1699911;84;21033;-81
2021/07/03 05:22:51;;;;;;;4.67;3.60;;;;;;;26.09;69.89;100907.02;1700174;84;21832;-81
2021/07/03 05:25:18;;;;;;;4.25;3.58;;;;;;;27.06;69.52;100903.73;1700249;83;21021;-81
2021/07/03 05:27:45;;;;;;;3.80;3.42;;;;;;;28.30;69.02;100901.50;1700318;84;21009;-82
2021/07/03 05:30:13;;;;;;;4.05;3.20;;;;;;;29.23;66.23;100902.05;1699890;84;21103;-82
2021/07/03 05:32:40;;;;;;;4.05;3.33;;;;;;;28.98;63.51;100898.28;1690489;83;21045;-80
2021/07/03 05:35:09;;;;;;;3.60;3.30;;;;;;;28.42;62.22;100901.42;1683536;85;21874;-81
2021/07/03 05:37:35;;;;;;;6.30;4.15;;;;;;;27.63;61.85;100896.83;1683699;83;21073;-80
2021/07/03 05:40:15;;;;;;;6.50;3.72;;;;;;;27.00;61.87;100894.53;1684365;84;21053;-84
2021/07/03 05:42:39;;;;;;;3.75;3.45;;;;;;;26.60;61.93;100895.67;1683072;85;21018;-83
2021/07/03 05:45:07;;;;;;;4.47;4.08;;;;;;;26.18;62.04;100900.38;1685188;85;21548;-83
2021/07/03 05:47:34;;;;;;;4.10;3.65;;;;;;;25.93;62.34;100901.77;1684522;83;21937;-83
2021/07/03 05:50:11;;;;;;;4.70;3.92;;;;;;;25.69;62.55;100908.41;1684957;85;21516;-85
2021/07/03 05:52:38;;;;;;;5.28;3.83;;;;;;;25.59;62.44;100898.43;1684528;83;21121;-82
2021/07/03 05:55:07;;;;;;;7.65;3.70;;;;;;;25.68;62.77;100895.89;1651445;85;21072;-83
2021/07/03 05:57:34;;;;;;;5.87;3.98;;;;;;;25.88;63.07;100895.15;1685031;85;21027;-85
2021/07/03 06:00:01;;;;;;;5.05;3.58;;;;;;;26.19;62.63;100900.33;1685134;83;21686;-85
2021/07/03 06:02:28;;;;;;;3.95;3.52;;;;;;;26.32;62.21;100900.75;1672594;85;21084;-86
2021/07/03 06:04:55;;;;;;;4.08;3.70;;;;;;;26.59;62.21;100893.86;1656875;86;21032;-80
2021/07/03 06:07:22;;;;;;;4.15;3.35;;;;;;;26.86;61.65;100895.98;1656547;86;21033;-84
2021/07/03 06:09:49;;;;;;;4.72;3.95;;;;;;;27.12;61.39;100890.86;1657230;85;21800;-83
2021/07/03 06:12:16;;;;;;;4.92;3.30;;;;;;;27.41;60.53;100894.65;1657075;85;22402;-83
2021/07/03 06:14:42;;;;;;;4.30;3.90;;;;;;;27.50;60.18;100900.53;1657137;85;21076;-84
2021/07/03 06:17:13;;;;;;;4.70;4.30;;;;;;;27.49;59.63;100901.95;1657158;86;21084;-84
2021/07/03 06:19:38;;;;;;;5.62;4.33;;;;;;;27.38;59.24;100895.64;1657218;85;21175;-83
2021/07/03 06:22:05;;;;;;;4.92;4.35;;;;;;;27.34;58.91;100898.08;1657646;86;21582;-86
2021/07/03 06:24:31;;;;;;;4.10;3.65;;;;;;;27.38;58.80;100900.17;1657720;86;22438;-84
2021/07/03 06:26:58;;;;;;;4.35;3.92;;;;;;;27.19;58.36;100901.40;1657602;85;21079;-82
2021/07/03 06:29:25;;;;;;;5.15;3.60;;;;;;;27.02;58.55;100900.75;1666848;85;21028;-83
2021/07/03 06:31:52;;;;;;;3.77;3.20;;;;;;;27.09;58.85;100900.91;1660038;85;21583;-83
2021/07/03 06:34:19;;;;;;;8.38;3.77;;;;;;;27.23;58.64;100897.62;1681997;84;21065;-82
2021/07/03 06:36:46;;;;;;;3.83;3.20;;;;;;;27.27;58.31;100898.83;1682043;84;21771;-82
2021/07/03 06:39:14;;;;;;;4.15;3.75;;;;;;;27.29;58.27;100902.34;1681987;85;21071;-83
2021/07/03 06:41:41;;;;;;;6.10;3.58;;;;;;;27.32;57.86;100902.19;1681593;84;21103;-83
2021/07/03 06:44:08;;;;;;;4.28;3.92;;;;;;;26.83;56.79;100908.72;1681901;85;21057;-82
2021/07/03 06:46:35;;;;;;;11.22;9.78;;;;;;;26.47;57.48;100914.13;1681959;84;21025;-82
2021/07/03 06:49:03;;;;;;;5.22;4.03;;;;;;;26.30;58.00;100913.91;1681801;85;21753;-85
2021/07/03 06:51:30;;;;;;;5.67;5.17;;;;;;;26.29;57.96;100920.22;1643812;85;21558;-82
2021/07/03 06:54:00;;;;;;;4.67;4.17;;;;;;;26.24;57.92;100913.67;1688881;83;20997;-82
2021/07/03 06:56:25;;;;;;;5.97;4.92;;;;;;;26.40;57.68;100922.05;1710204;83;21549;-89
2021/07/03 06:58:58;;;;;;;4.92;4.42;;;;;;;26.17;57.46;100927.84;1710878;83;21052;-86
2021/07/03 07:01:26;;;;;;;7.53;3.80;;;;;;;26.22;58.05;100922.73;1709992;82;21194;-82
2021/07/03 07:03:53;;;;;;;5.53;4.12;;;;;;;26.25;57.79;100930.25;1710588;83;21498;-88
2021/07/03 07:06:20;;;;;;;5.65;3.85;;;;;;;26.14;57.30;100923.02;1710816;83;21017;-85
2021/07/03 07:08:47;;;;;;;6.40;5.80;;;;;;;26.12;57.81;100928.47;1710764;83;21081;-88
2021/07/03 07:11:16;;;;;;;5.67;5.10;;;;;;;26.14;57.80;100933.34;1703162;83;21144;-89
2021/07/03 07:13:46;;;;;;;9.60;4.67;;;;;;;26.18;57.52;100935.45;1675029;84;21835;-87
2021/07/03 07:16:15;;;;;;;6.45;3.80;;;;;;;26.20;57.46;100933.58;1674490;84;21071;-87
2021/07/03 07:18:42;;;;;;;9.65;4.15;;;;;;;26.21;57.78;100935.83;1675700;84;21116;-86
2021/07/03 07:21:09;;;;;;;4.92;4.17;;;;;;;26.37;57.63;100935.64;1675664;84;21091;-87
2021/07/03 07:23:36;;;;;;;5.42;4.65;;;;;;;26.31;57.22;100940.80;1676007;84;21001;-90
2021/07/03 07:26:03;;;;;;;4.20;3.52;;;;;;;26.23;56.89;100937.52;1675940;84;21851;-90
2021/07/03 07:28:30;;;;;;;3.98;3.65;;;;;;;26.11;57.44;100932.13;1652965;84;21665;-86
2021/07/03 07:30:57;;;;;;;6.35;3.80;;;;;;;26.27;57.66;100929.72;1693532;83;21142;-86
2021/07/03 07:33:24;;;;;;;4.58;4.17;;;;;;;26.47;57.72;100933.02;1688599;83;21101;-84
2021/07/03 07:36:00;;;;;;;5.83;5.33;;;;;;;26.65;57.38;100934.63;1685153;84;21351;-84
2021/07/03 07:38:27;;;;;;;4.80;4.40;;;;;;;26.57;56.84;100937.11;1685678;83;21786;-90
2021/07/03 07:40:55;;;;;;;6.70;4.30;;;;;;;26.44;56.88;100938.52;1685461;83;21539;-90
2021/07/03 07:43:22;;;;;;;4.60;4.22;;;;;;;26.29;56.72;100941.81;1685809;84;21705;-88
2021/07/03 07:45:57;;;;;;;4.70;4.28;;;;;;;26.10;56.63;100938.92;1685618;85;21018;-89
2021/07/03 07:48:49;;;;;;;5.78;5.05;;;;;;;25.84;56.61;100947.44;1669974;85;21088;-88
2021/07/03 07:51:18;;;;;;;5.00;4.40;;;;;;;25.50;56.98;100945.91;1635434;87;21633;-89
2021/07/03 07:53:45;;;;;;;6.45;4.78;;;;;;;25.16;57.07;100952.39;1669419;85;21096;-88
2021/07/03 07:56:11;;;;;;;7.45;4.55;;;;;;;24.89;57.61;100953.27;1684542;85;21068;-88
2021/07/03 07:58:38;;;;;;;7.05;4.17;;;;;;;24.69;58.16;100958.81;1684828;85;21053;-88
2021/07/03 08:01:05;;;;;;;7.75;4.60;;;;;;;24.51;58.44;100953.94;1684388;83;21054;-88
2021/07/03 08:03:31;;;;;;;5.03;4.50;;;;;;;24.45;58.95;100951.84;1684529;85;21760;-88
2021/07/03 08:05:58;;;;;;;4.72;4.33;;;;;;;24.48;59.12;100948.20;1684440;85;21074;-88
2021/07/03 08:08:26;;;;;;;4.28;3.85;;;;;;;24.52;59.58;100941.83;1685455;85;21041;-88
2021/07/03 08:10:53;;;;;;;10.18;5.83;;;;;;;24.66;59.78;100942.74;1685849;85;21022;-88
2021/07/03 08:13:19;;;;;;;8.70;4.58;;;;;;;24.81;59.80;100936.91;1685753;85;21018;-88
2021/07/03 08:15:46;;;;;;;9.15;4.85;;;;;;;24.97;59.63;100935.95;1685793;85;21758;-88
2021/07/03 08:18:13;;;;;;;9.30;5.20;;;;;;;25.11;59.50;100939.53;1685815;85;21066;-88
2021/07/03 08:20:40;;;;;;;6.17;4.47;;;;;;;25.33;59.37;100936.18;1685682;85;21090;-89
2021/07/03 08:23:07;;;;;;;5.87;4.97;;;;;;;25.52;59.34;100937.78;1685464;85;21077;-88
2021/07/03 08:25:34;;;;;;;4.17;3.85;;;;;;;25.83;59.13;100940.74;1685663;85;21002;-88
2021/07/03 08:28:01;;;;;;;4.50;4.10;;;;;;;26.17;58.71;100940.46;1685760;85;21763;-88
2021/07/03 08:30:28;;;;;;;5.55;4.53;;;;;;;26.45;58.38;100938.95;1685797;84;21480;-90
2021/07/03 08:32:55;;;;;;;6.50;4.12;;;;;;;26.76;58.00;100934.60;1685571;83;21034;-88
2021/07/03 08:35:22;;;;;;;6.78;4.45;;;;;;;27.13;57.56;100939.01;1685613;85;21053;-88
2021/07/03 08:37:49;;;;;;;5.65;4.20;;;;;;;27.40;56.97;100943.75;1685834;85;21606;-88
2021/07/03 08:40:16;;;;;;;4.95;4.37;;;;;;;27.60;56.65;100946.98;1685739;85;21754;-88
2021/07/03 08:42:43;;;;;;;5.60;4.28;;;;;;;27.70;56.15;100946.09;1685540;83;21037;-88
2021/07/03 08:45:15;;;;;;;4.35;3.95;;;;;;;27.63;55.72;100953.61;1685614;84;21117;-88
2021/07/03 08:47:45;;;;;;;5.00;4.40;;;;;;;27.48;55.42;100950.19;1684878;85;21058;-88
2021/07/03 08:50:17;;;;;;;8.90;4.62;;;;;;;27.35;55.36;100955.26;1685662;84;21082;-88
2021/07/03 08:52:43;;;;;;;6.28;4.55;;;;;;;27.18;55.41;100952.31;1685692;85;22594;-88
2021/07/03 08:55:47;;;;;;;4.37;3.98;;;;;;;27.01;55.44;100947.60;1685471;85;21065;-88
2021/07/03 08:58:14;;;;;;;7.67;4.67;;;;;;;26.89;55.21;100949.86;1685811;85;21491;-88
2021/07/03 09:00:54;;;;;;;6.55;4.62;;;;;;;26.48;55.11;100950.96;1685755;85;21205;-88
2021/07/03 09:03:24;;;;;;;6.45;4.53;;;;;;;26.30;55.54;100952.55;1685692;85;21026;-88
2021/07/03 09:05:54;;;;;;;5.78;4.65;;;;;;;26.27;55.90;100954.01;1684925;85;21830;-88
2021/07/03 09:08:24;;;;;;;5.95;4.50;;;;;;;26.37;56.14;100950.05;1685612;85;21072;-88
2021/07/03 09:11:09;;;;;;;6.60;5.60;;;;;;;26.34;55.98;100950.14;1685196;84;21053;-89
2021/07/03 09:13:37;;;;;;;5.00;4.37;;;;;;;26.21;55.74;100953.38;1685767;85;21018;-88
2021/07/03 09:16:05;;;;;;;5.90;4.80;;;;;;;25.92;56.14;100952.14;1685533;85;21604;-89
2021/07/03 09:18:32;;;;;;;5.92;4.45;;;;;;;25.73;55.74;100949.19;1685517;84;22500;-89
2021/07/03 09:21:02;;;;;;;5.42;4.62;;;;;;;25.45;56.28;100951.05;1685510;85;21445;-88
2021/07/03 09:23:34;;;;;;;5.80;5.03;;;;;;;25.45;56.61;100945.66;1685601;85;21539;-89
2021/07/03 09:26:03;;;;;;;6.50;5.20;;;;;;;25.51;56.90;100949.48;1685550;84;21030;-89
2021/07/03 09:28:39;;;;;;;5.80;4.65;;;;;;;25.52;56.71;100947.22;1685890;85;21022;-88
2021/07/03 09:31:08;;;;;;;5.33;4.85;;;;;;;25.56;56.85;100948.87;1685411;84;21766;-90
2021/07/03 09:33:38;;;;;;;8.45;5.05;;;;;;;25.56;57.12;100953.78;1691730;83;21032;-90
2021/07/03 09:36:11;;;;;;;5.17;4.67;;;;;;;25.46;57.00;100951.47;1700270;84;21045;-89
2021/07/03 09:38:45;;;;;;;6.78;5.28;;;;;;;25.31;57.09;100963.64;1701070;84;21044;-90
2021/07/03 09:41:24;;;;;;;7.47;5.60;;;;;;;25.06;57.08;100952.29;1700677;84;21032;-90
2021/07/03 09:43:59;;;;;;;11.28;10.18;;;;;;;24.95;57.39;100949.92;1700889;84;21878;-90
2021/07/03 09:46:40;;;;;;;6.35;5.75;;;;;;;24.98;57.63;100948.50;1700189;84;21088;-89
2021/07/03 09:49:10;;;;;;;7.62;5.30;;;;;;;25.00;57.73;100951.11;1672117;84;21128;-88
2021/07/03 09:51:45;;;;;;;7.17;5.75;;;;;;;25.02;58.12;100946.12;1673127;84;21325;-89
2021/07/03 09:54:14;;;;;;;8.88;5.85;;;;;;;25.17;58.16;100951.47;1701060;84;21076;-89
2021/07/03 09:56:41;;;;;;;6.67;5.58;;;;;;;25.33;58.27;100943.78;1700815;84;21942;-88
2021/07/03 09:59:10;;;;;;;7.95;5.95;;;;;;;25.47;57.97;100946.04;1700640;84;21385;-88
2021/07/03 10:01:40;;;;;;;6.83;6.22;;;;;;;25.54;57.72;100945.34;1700797;84;21115;-88
2021/07/03 10:04:05;;;;;;;7.45;6.40;;;;;;;25.49;57.60;100942.83;1700395;84;21072;-89
2021/07/03 10:07:01;;;;;;;7.20;6.60;;;;;;;25.50;57.81;100943.70;1700351;84;21590;-89
2021/07/03 10:09:49;;;;;;;8.30;7.50;;;;;;;25.48;57.74;100945.09;1700699;84;21763;-89
2021/07/03 10:12:26;;;;;;;6.20;5.25;;;;;;;25.48;57.91;100939.70;1700237;84;21025;-90
2021/07/03 10:14:53;;;;;;;10.20;7.67;;;;;;;25.53;57.86;100943.13;1700285;84;21081;-90
2021/07/03 10:17:25;;;;;;;7.50;5.62;;;;;;;25.69;57.88;100947.50;1700779;84;21025;-90
2021/07/03 10:19:52;;;;;;;6.65;5.80;;;;;;;25.95;57.63;100948.44;1672656;84;21131;-90
2021/07/03 10:22:22;;;;;;;4.72;3.98;;;;;;;26.02;57.51;100936.98;1700832;84;21763;-89
2021/07/03 10:24:54;;;;;;;6.25;5.65;;;;;;;26.24;57.65;100937.05;1700442;84;20998;-87
2021/07/03 10:27:28;;;;;;;5.85;5.35;;;;;;;26.46;57.20;100944.74;1699973;84;21104;-86
2021/07/03 10:30:01;;;;;;;10.35;5.25;;;;;;;26.62;56.68;100932.94;1672771;84;21045;-88
2021/07/03 10:32:45;;;;;;;5.90;5.40;;;;;;;26.68;56.29;100931.34;1695795;84;21092;-94
2021/07/03 10:35:16;;;;;;;4.95;4.55;;;;;;;26.84;56.35;100928.02;1697413;83;21038;-92
2021/07/03 10:37:42;;;;;;;8.43;4.80;;;;;;;27.08;55.74;100928.85;1700580;83;21080;-85
2021/07/03 10:40:27;;;;;;;5.12;4.28;;;;;;;27.30;55.89;100918.08;1700312;84;21057;-82
2021/07/03 10:42:54;;;;;;;5.40;4.90;;;;;;;27.59;55.57;100916.84;1688220;83;21263;-84
2021/07/03 10:45:23;;;;;;;5.72;5.22;;;;;;;27.79;55.05;100920.48;1650048;86;21591;-86
2021/07/03 10:47:51;;;;;;;6.15;5.60;;;;;;;27.61;54.06;100921.70;1687952;83;21911;-86
2021/07/03 10:50:26;;;;;;;7.42;5.25;;;;;;;27.35;54.15;100913.36;1688090;85;21046;-87
2021/07/03 10:52:55;;;;;;;4.80;4.22;;;;;;;27.12;54.42;100924.63;1688245;83;21022;-82
2021/07/03 10:55:31;;;;;;;6.42;4.75;;;;;;;27.02;54.81;100923.71;1688149;84;21208;-82
2021/07/03 10:57:59;;;;;;;5.15;4.45;;;;;;;26.98;54.94;100920.25;1688221;83;21164;-82
2021/07/03 11:00:25;;;;;;;6.78;5.12;;;;;;;26.89;55.07;100921.97;1688040;84;22595;-83
2021/07/03 11:02:52;;;;;;;5.72;5.22;;;;;;;26.72;54.80;100919.95;1688072;85;21073;-83
2021/07/03 11:05:19;;;;;;;4.90;4.50;;;;;;;26.60;55.09;100922.67;1670853;85;21129;-85
2021/07/03 11:07:46;;;;;;;6.40;5.12;;;;;;;26.44;54.89;100918.28;1649880;87;21041;-87
2021/07/03 11:10:19;;;;;;;5.22;4.72;;;;;;;26.44;54.93;100922.81;1688342;84;21076;-85
2021/07/03 11:12:54;;;;;;;5.08;4.58;;;;;;;26.37;55.03;100919.00;1687677;84;21776;-85
2021/07/03 11:15:26;;;;;;;6.60;4.72;;;;;;;26.46;55.31;100920.92;1649677;86;21045;-86
2021/07/03 11:17:52;;;;;;;5.75;4.90;;;;;;;26.62;55.28;100911.81;1688385;83;21551;-85
2021/07/03 11:20:36;;;;;;;5.72;4.87;;;;;;;26.78;55.22;100922.88;1688412;84;21011;-86
2021/07/03 11:23:05;;;;;;;4.97;4.47;;;;;;;27.01;55.09;100917.88;1688419;83;21090;-85
2021/07/03 11:25:38;;;;;;;7.20;5.25;;;;;;;27.19;54.79;100914.91;1688517;85;21749;-85
2021/07/03 11:28:19;;;;;;;;;;;;;;;27.47;54.66;100912.82;1690821;83;21575;-94
2021/07/03 11:30:50;;;;;;;6.87;5.00;;;;;;;27.76;54.02;100917.45;1688015;85;20174;-87